Whale Point, California Weather observations

Data are for observation ending at time listed.
 Day   Time    Ave.   Ave.  Ave.  Vector   Max.   Stn.    Total    Solar   Ave.  
  of    of     Air    Rel.  Wind   Wind    Wind   Baro.  Precip.   Rad.    Soil  
Year   Day     Temp.  Hum.  Speed  Dir.    Gust   Pres.                    Temp. 
2015   (PST)    F      %     mph   deg.    mph     mb.     in.     W/m2     F   
------------------------------------------------------------------------------
 115   18:40   50.9    79   12.9   342     24.9   995.3    0.00      17    64.8
 115   18:50   50.8    80   11.5   356     23.7   995.6    0.00       7    64.8
 115   19:00   50.6    80   13.2   359     26.0   995.6    0.00       3    64.8
 115   19:10   50.6    79   13.6   359     25.3   995.6    0.00       0    64.8
 115   19:20   50.7    78   12.4     7     24.7   995.6    0.00       0    64.7
 115   19:30   50.8    77   11.4   358     23.0   995.9    0.00       0    64.7
 115   19:40   50.5    78    6.7   355     18.4   995.9    0.00       0    64.7
 115   19:50   50.1    78    9.5   343     19.1   995.9    0.00       0    64.6
 115   20:00   50.1    77   11.5   350     21.3   996.3    0.00       0    64.6
 115   20:10   50.0    76   12.1     0     23.0   996.3    0.00       0    64.5
 115   20:20   50.2    74    8.0   343     16.0   996.3    0.00       0    64.5
 115   20:30   50.5    71    2.5   304      8.0   996.3    0.00       0    64.4
 115   20:40   50.5    72    4.9    14     10.8   996.3    0.00       0    64.4
 115   20:50   50.3    71    8.4   354     19.1   996.3    0.00       0    64.3
 115   21:00   50.0    72    9.8   353     19.6   996.3    0.00       0    64.3
 115   21:10   50.2    70   10.1   355     16.4   996.6    0.00       0    64.2
 115   21:20   50.3    69   11.1   350     21.5   996.6    0.00       0    64.1
 115   21:30   50.2    68    9.1   351     18.0   996.6    0.00       0    64.1
 115   21:40   50.3    66    6.4    10     12.2   996.6    0.00       0    64.0
 115   21:50   50.4    65    7.7    11     17.6   996.6    0.00       0    63.9
 115   22:00   50.3    65    6.6    17     15.7   996.6    0.00       0    63.8
 115   22:10   49.7    67    6.1    17     21.3   996.6    0.00       0    63.8
 115   22:20   50.3    67   12.0     4     22.1   996.6    0.00       0    63.7
 115   22:30   50.3    67   14.3     7     26.9   996.6    0.00       0    63.6
 115   22:40   50.3    68   14.6     7     23.5   996.6    0.00       0    63.6
 115   22:50   50.2    67    5.0    16     18.2   996.6    0.00       0    63.5
 115   23:00   50.3    64    5.8    38     12.8   996.6    0.00       0    63.4
 115   23:10   50.1    64    2.4   114      8.1   996.6    0.00       0    63.3
 115   23:20   50.1    63    2.7    62      8.0   996.6    0.00       0    63.2
 115   23:30   50.2    66    6.0   354     15.8   996.6    0.00       0    63.2
 115   23:40  99999.0   99999  99999.0   99999    99999.0   99999.0   99999.00   99999    99999.0
 115   23:50  99999.0   99999  99999.0   99999    99999.0   99999.0   99999.00   99999    99999.0
 116    0:00  99999.0   99999  99999.0   99999    99999.0   99999.0   99999.00   99999    99999.0
 116    0:10  99999.0   99999  99999.0   99999    99999.0   99999.0   99999.00   99999    99999.0
 116    0:20  99999.0   99999  99999.0   99999    99999.0   99999.0   99999.00   99999    99999.0
 116    0:30  99999.0   99999  99999.0   99999    99999.0   99999.0   99999.00   99999    99999.0
 116    0:40  99999.0   99999  99999.0   99999    99999.0   99999.0   99999.00   99999    99999.0
 116    0:50  99999.0   99999  99999.0   99999    99999.0   99999.0   99999.00   99999    99999.0
 116    1:00  99999.0   99999  99999.0   99999    99999.0   99999.0   99999.00   99999    99999.0
 116    1:10  99999.0   99999  99999.0   99999    99999.0   99999.0   99999.00   99999    99999.0
 116    1:20  99999.0   99999  99999.0   99999    99999.0   99999.0   99999.00   99999    99999.0
 116    1:30  99999.0   99999  99999.0   99999    99999.0   99999.0   99999.00   99999    99999.0
 116    1:40  99999.0   99999  99999.0   99999    99999.0   99999.0   99999.00   99999    99999.0
 116    1:50  99999.0   99999  99999.0   99999    99999.0   99999.0   99999.00   99999    99999.0
 116    2:00  99999.0   99999  99999.0   99999    99999.0   99999.0   99999.00   99999    99999.0
 116    2:10  99999.0   99999  99999.0   99999    99999.0   99999.0   99999.00   99999    99999.0
 116    2:20  99999.0   99999  99999.0   99999    99999.0   99999.0   99999.00   99999    99999.0
 116    2:30  99999.0   99999  99999.0   99999    99999.0   99999.0   99999.00   99999    99999.0
 116    2:40   48.0    61    3.1    78      6.7   996.3    0.00       0    61.7
 116    2:50   48.6    56    2.7    91      5.3   996.3    0.00       0    61.7
 116    3:00   48.9    57    1.7    99      3.8   996.3    0.00       0    61.6
 116    3:10   48.2    62    1.5    67      3.8   996.3    0.00       0    61.5
 116    3:20   48.7    60    1.1    90      3.4   996.3    0.00       0    61.5
 116    3:30  99999.0   99999  99999.0   99999    99999.0   99999.0   99999.00   99999    99999.0
 116    3:40   49.2    60    2.7    54      5.3   996.3    0.00       0    61.3
 116    3:50   50.2    58    3.9    41      7.3   996.6    0.00       0    61.3
 116    4:00   49.8    55    3.0    70      6.4   996.3    0.00       0    61.2
 116    4:10   48.1    58    3.7    50      6.8   996.3    0.00       0    61.1
 116    4:20   48.3    58    4.3    57      7.9   996.6    0.00       0    61.1
 116    4:30   50.2    61    2.5    36      6.9   996.6    0.00       0    61.0
 116    4:40   48.8    58    5.6    67     10.2   996.6    0.00       0    60.9
 116    4:50   49.3    58    3.5    44      9.3   996.6    0.00       0    60.9
 116    5:00   50.4    63    1.5    16      4.1   996.6    0.00       0    60.9
 116    5:10   49.7    63    4.9    24     12.6   996.6    0.00       1    60.8
 116    5:20   49.9    65    3.8    25     10.7   997.0    0.00       3    60.7
 116    5:30   50.0    61    1.7    62      9.6   997.0    0.00       6    60.7
 116    5:40   48.5    63    3.6    63      5.8   997.0    0.00       9    60.6
 116    5:50   47.7    64    2.9    58      5.3   997.0    0.00      13    60.5
 116    6:00   49.2    60    2.2   123      5.3   997.0    0.00      16    60.5
 116    6:10   49.3    60    1.4    50      5.0   997.3    0.00      19    60.4
 116    6:20   49.9    62    2.8    35      6.9   997.0    0.00      22    60.4
 116    6:30   50.0    61    2.4   177      7.2   997.0    0.00      26    60.3
 116    6:40   49.9    64    2.4   160      5.0   997.3    0.00      29    60.2
 116    6:50   50.1    66    3.2   358     11.6   997.3    0.00      29    60.2
 116    7:00   50.0    68    1.4   358      3.1   997.3    0.00      31    60.1
 116    7:10   49.6    71    2.0   175      4.6   997.3    0.00      93    60.1
 116    7:20   50.7    70    3.1   160      7.5   997.3    0.00     381    60.0
 116    7:30   51.9    68    2.1   185      4.5   997.3    0.00     423    59.9
 116    7:40   52.5    67    1.4   285      4.3   997.6    0.00     462    59.8
 116    7:50   52.8    68    2.1   175      5.5   997.6    0.00     507    59.8
 116    8:00   53.2    67    2.5   141      5.7   997.6    0.00     537    59.7
 116    8:10   53.5    67    2.9   170      6.3   997.6    0.00     573    59.7
 116    8:20   53.4    68    2.0   208      4.9   997.6    0.00     611    59.7
 116    8:30   53.9    67    3.7   167      7.2   997.6    0.00     644    59.7
 116    8:40   53.9    68    3.8   264      8.7   997.6    0.00     676    59.7
 116    8:50   53.5    69    5.7   314     14.6   997.6    0.00     701    59.6
 116    9:00   53.5    69    4.6   303     14.5   997.6    0.00     735    59.6
 116    9:10   53.6    70    5.5   306     12.8   997.6    0.00     762    59.6
 116    9:20   54.0    70    6.8   318     16.2   998.0    0.00     791    59.7
 116    9:30   54.2    70    5.6   288     14.5   998.0    0.00     812    59.7
 116    9:40   56.0    68    3.2   257     10.2   998.0    0.00     843    59.7
 116    9:50   56.4    68    4.9   287     14.6   998.0    0.00     863    59.7
 116   10:00   56.0    69    4.9   273     10.6   998.0    0.00     886    59.7
 116   10:10   56.1    69    4.7   283     13.9   998.0    0.00     898    59.7
 116   10:20   57.1    68    4.3   238     10.2   998.0    0.00     927    59.8
 116   10:30   56.4    69    7.2   264     15.9   998.0    0.00     943    59.8
 116   10:40   56.2    70    5.3   264     12.7   998.0    0.00     959    59.9
 116   10:50   56.1    70    5.3   274     11.1   998.0    0.00     972    59.9
 116   11:00   56.4    70    6.4   268     12.7   998.0    0.00     984    59.9
 116   11:10   57.5    69    6.4   261     14.1   998.0    0.00     994    60.0
 116   11:20   57.9    69    4.9   260     10.4   998.0    0.00    1002    60.0
 116   11:30   58.5    68    5.0   226     10.2   997.6    0.00    1013    60.0
 116   11:40   58.0    68    6.3   256     13.2   997.6    0.00    1007    60.0
 116   11:50   58.8    68    4.4   240      9.4   997.6    0.00    1016    60.1
 116   12:00   58.6    68    4.8   253     12.3   997.6    0.00    1028    60.2
 116   12:10   58.3    68    6.0   274     12.2   997.6    0.00    1018    60.2
 116   12:20   58.0    69    5.7   268     12.7   997.6    0.00    1033    60.3
 116   12:30   59.3    67    5.4   253     10.8   997.3    0.00     988    60.5
 116   12:40   59.1    68    5.3   249     12.5   997.3    0.00     942    60.5
 116   12:50   59.3    68    5.9   234      9.7   997.3    0.00    1020    60.7
 116   13:00   59.8    67    5.5   218     10.4   997.3    0.00    1006    60.8
 116   13:10   59.4    67    4.7   211     10.0   997.3    0.00     965    61.0
 116   13:20   58.9    68    5.9   238     11.0   997.3    0.00     944    61.2
 116   13:30   59.4    68    5.4   234      9.6   997.3    0.00     964    61.3
 116   13:40   60.6    65    4.8   227      8.3   997.0    0.00     948    61.5
 116   13:50   59.7    67    5.2   251      8.8   997.0    0.00     928    61.7
 116   14:00   60.9    65    5.0   221      8.8   997.0    0.00     908    61.9
 116   14:10   59.5    67    4.8   257      9.4   997.0    0.00     891    62.1
 116   14:20   60.3    67    4.6   234      8.9   996.6    0.00     870    62.3
 116   14:30   60.4    66    5.8   242      9.6   996.6    0.00     841    62.6
 116   14:40   60.3    67    4.7   234      8.0   996.6    0.00     803    62.8
 116   14:50   60.3    67    5.1   233      9.7   996.3    0.00     749    63.0
 116   15:00   59.9    68    4.5   226      7.1   996.3    0.00     740    63.2
 116   15:10   60.8    66    4.6   244      8.5   996.3    0.00     704    63.5
 116   15:20   60.4    66    4.8   241      8.7   996.3    0.00     662    63.7
 116   15:30   60.0    67    4.8   238      7.9   996.3    0.00     637    63.9
 116   15:40   60.5    66    4.1   216      7.5   996.3    0.00     616    64.1
 116   15:50   61.1    65    4.2   218      8.0   995.9    0.00     618    64.4
 116   16:00   60.9    64    3.4   215      7.7   995.9    0.00     580    64.6
 116   16:10   62.0    62    2.9   190      6.6   995.6    0.00     546    64.8
 116   16:20   62.6    60    3.7   218      7.1   995.6    0.00     509    65.0
 116   16:30   63.7    58    1.7   271      5.6   995.6    0.00     471    65.2
 116   16:40   64.2    57    3.1   245      7.4   995.3    0.00     434    65.4
 116   16:50   62.9    59    4.2   240      8.1   995.3    0.00     350    65.6
 116   17:00   62.8    60    4.1   236      9.2   995.3    0.00     298    65.8
 116   17:10   62.6    61    3.4   206      9.4   995.3    0.00     320    66.0
 116   17:20   63.2    59    2.6   208      6.4   995.3    0.00     281    66.2
 116   17:30   62.7    60    2.1   235      4.8   994.9    0.00     244    66.3
 116   17:40   62.9    60    2.3   218      4.7   994.9    0.00     208    66.5
 116   17:50   62.7    60    2.3   212      4.5   995.3    0.00     175    66.7
 116   18:00   63.1    58    2.6   192      6.4   994.9    0.00     148    66.8
 116   18:10   62.0    60    3.4   189      7.1   995.3    0.00     117    67.0
 116   18:20   60.7    63    2.4   203      5.4   995.3    0.00      78    67.1
 116   18:30   58.0    68    2.0   204      6.4   995.3    0.00      33    67.2

Return to Whale Point graphs page.


Western Regional Climate Center,wrcc@dri.edu